sensor_id;sensor_type;location;lat;lon;timestamp;temperature;humidity
19880;DHT22;10102;50.828;4.416;2023-10-08T00:01:21;17.90;99.90
19880;DHT22;10102;50.828;4.416;2023-10-08T00:03:48;17.90;99.90
19880;DHT22;10102;50.828;4.416;2023-10-08T00:06:15;17.90;99.90
19880;DHT22;10102;50.828;4.416;2023-10-08T00:08:41;18.00;99.90
19880;DHT22;10102;50.828;4.416;2023-10-08T00:11:07;17.90;99.90
19880;DHT22;10102;50.828;4.416;2023-10-08T00:13:35;18.00;99.90
19880;DHT22;10102;50.828;4.416;2023-10-08T00:16:07;17.90;99.90
19880;DHT22;10102;50.828;4.416;2023-10-08T00:18:37;17.90;99.90
19880;DHT22;10102;50.828;4.416;2023-10-08T00:21:04;17.90;99.90
19880;DHT22;10102;50.828;4.416;2023-10-08T00:23:32;17.70;99.90
19880;DHT22;10102;50.828;4.416;2023-10-08T00:26:01;17.90;99.90
19880;DHT22;10102;50.828;4.416;2023-10-08T00:28:30;17.80;99.90
19880;DHT22;10102;50.828;4.416;2023-10-08T00:30:58;17.70;99.90
19880;DHT22;10102;50.828;4.416;2023-10-08T00:33:31;17.70;99.90
19880;DHT22;10102;50.828;4.416;2023-10-08T00:35:57;17.50;99.90
19880;DHT22;10102;50.828;4.416;2023-10-08T00:38:22;17.70;99.90
19880;DHT22;10102;50.828;4.416;2023-10-08T00:40:51;17.50;99.90
19880;DHT22;10102;50.828;4.416;2023-10-08T00:43:34;17.60;99.90
19880;DHT22;10102;50.828;4.416;2023-10-08T00:46:03;17.70;99.90
19880;DHT22;10102;50.828;4.416;2023-10-08T00:48:56;17.60;99.90
19880;DHT22;10102;50.828;4.416;2023-10-08T00:51:23;17.50;99.90
19880;DHT22;10102;50.828;4.416;2023-10-08T00:53:59;17.60;99.90
19880;DHT22;10102;50.828;4.416;2023-10-08T00:56:32;17.50;99.90
19880;DHT22;10102;50.828;4.416;2023-10-08T00:59:33;17.50;99.90
19880;DHT22;10102;50.828;4.416;2023-10-08T01:02:10;17.50;99.90
19880;DHT22;10102;50.828;4.416;2023-10-08T01:04:40;17.40;99.90
19880;DHT22;10102;50.828;4.416;2023-10-08T01:07:11;17.40;99.90
19880;DHT22;10102;50.828;4.416;2023-10-08T01:09:42;17.50;99.90
19880;DHT22;10102;50.828;4.416;2023-10-08T01:12:15;17.40;99.90
19880;DHT22;10102;50.828;4.416;2023-10-08T01:15:04;17.50;99.90
19880;DHT22;10102;50.828;4.416;2023-10-08T01:20:22;17.50;99.90
19880;DHT22;10102;50.828;4.416;2023-10-08T01:25:53;17.40;99.90
19880;DHT22;10102;50.828;4.416;2023-10-08T01:28:23;17.30;99.90
19880;DHT22;10102;50.828;4.416;2023-10-08T01:30:55;17.30;99.90
19880;DHT22;10102;50.828;4.416;2023-10-08T01:33:22;17.40;99.90
19880;DHT22;10102;50.828;4.416;2023-10-08T01:38:18;17.40;99.90
19880;DHT22;10102;50.828;4.416;2023-10-08T01:40:49;17.30;99.90
19880;DHT22;10102;50.828;4.416;2023-10-08T01:43:19;17.20;99.90
19880;DHT22;10102;50.828;4.416;2023-10-08T01:45:45;17.20;99.90
19880;DHT22;10102;50.828;4.416;2023-10-08T01:48:15;17.10;99.90
19880;DHT22;10102;50.828;4.416;2023-10-08T01:50:46;16.90;99.90
19880;DHT22;10102;50.828;4.416;2023-10-08T01:53:14;17.10;99.90
19880;DHT22;10102;50.828;4.416;2023-10-08T01:55:41;17.10;99.90
19880;DHT22;10102;50.828;4.416;2023-10-08T01:58:18;17.10;99.90
19880;DHT22;10102;50.828;4.416;2023-10-08T02:00:47;17.10;99.90
19880;DHT22;10102;50.828;4.416;2023-10-08T02:03:16;17.20;99.90
19880;DHT22;10102;50.828;4.416;2023-10-08T02:05:44;17.30;99.90
19880;DHT22;10102;50.828;4.416;2023-10-08T02:08:14;16.70;99.90
19880;DHT22;10102;50.828;4.416;2023-10-08T02:10:41;16.90;99.90
19880;DHT22;10102;50.828;4.416;2023-10-08T02:13:09;16.90;99.90
19880;DHT22;10102;50.828;4.416;2023-10-08T02:15:36;16.90;99.90
19880;DHT22;10102;50.828;4.416;2023-10-08T02:18:03;16.90;99.90
19880;DHT22;10102;50.828;4.416;2023-10-08T02:20:30;16.90;99.90
19880;DHT22;10102;50.828;4.416;2023-10-08T02:22:55;16.90;99.90
19880;DHT22;10102;50.828;4.416;2023-10-08T02:25:21;16.80;99.90
19880;DHT22;10102;50.828;4.416;2023-10-08T02:27:49;16.80;99.90
19880;DHT22;10102;50.828;4.416;2023-10-08T02:30:14;16.80;99.90
19880;DHT22;10102;50.828;4.416;2023-10-08T02:32:40;16.80;99.90
19880;DHT22;10102;50.828;4.416;2023-10-08T02:35:10;16.90;99.90
19880;DHT22;10102;50.828;4.416;2023-10-08T02:37:37;16.80;99.90
19880;DHT22;10102;50.828;4.416;2023-10-08T02:40:09;16.70;99.90
19880;DHT22;10102;50.828;4.416;2023-10-08T02:42:54;16.80;99.90
19880;DHT22;10102;50.828;4.416;2023-10-08T02:45:27;16.90;99.90
19880;DHT22;10102;50.828;4.416;2023-10-08T02:47:53;16.90;99.90
19880;DHT22;10102;50.828;4.416;2023-10-08T02:50:20;17.00;99.90
19880;DHT22;10102;50.828;4.416;2023-10-08T02:52:51;16.90;99.90
19880;DHT22;10102;50.828;4.416;2023-10-08T02:55:18;16.90;99.90
19880;DHT22;10102;50.828;4.416;2023-10-08T02:57:55;16.90;99.90
19880;DHT22;10102;50.828;4.416;2023-10-08T03:00:21;16.80;99.90
19880;DHT22;10102;50.828;4.416;2023-10-08T03:02:57;16.80;99.90
19880;DHT22;10102;50.828;4.416;2023-10-08T03:05:27;16.60;99.90
19880;DHT22;10102;50.828;4.416;2023-10-08T03:07:55;16.80;99.90
19880;DHT22;10102;50.828;4.416;2023-10-08T03:10:23;16.90;99.90
19880;DHT22;10102;50.828;4.416;2023-10-08T03:12:57;16.70;99.90
19880;DHT22;10102;50.828;4.416;2023-10-08T03:15:30;16.80;99.90
19880;DHT22;10102;50.828;4.416;2023-10-08T03:17:59;16.80;99.90
19880;DHT22;10102;50.828;4.416;2023-10-08T03:20:35;16.90;99.90
19880;DHT22;10102;50.828;4.416;2023-10-08T03:23:08;16.90;99.90
19880;DHT22;10102;50.828;4.416;2023-10-08T03:25:54;16.90;99.90
19880;DHT22;10102;50.828;4.416;2023-10-08T03:28:24;16.80;99.90
19880;DHT22;10102;50.828;4.416;2023-10-08T03:30:52;16.90;99.90
19880;DHT22;10102;50.828;4.416;2023-10-08T03:33:21;17.30;99.90
19880;DHT22;10102;50.828;4.416;2023-10-08T03:35:52;16.80;99.90
19880;DHT22;10102;50.828;4.416;2023-10-08T03:38:19;16.90;99.90
19880;DHT22;10102;50.828;4.416;2023-10-08T03:40:56;16.90;99.90
19880;DHT22;10102;50.828;4.416;2023-10-08T03:43:33;17.00;99.90
19880;DHT22;10102;50.828;4.416;2023-10-08T03:46:00;17.20;99.90
19880;DHT22;10102;50.828;4.416;2023-10-08T03:48:32;16.80;99.90
19880;DHT22;10102;50.828;4.416;2023-10-08T03:51:03;16.80;99.90
19880;DHT22;10102;50.828;4.416;2023-10-08T03:53:38;16.80;99.90
19880;DHT22;10102;50.828;4.416;2023-10-08T03:56:23;16.80;99.90
19880;DHT22;10102;50.828;4.416;2023-10-08T03:58:50;16.80;99.90
19880;DHT22;10102;50.828;4.416;2023-10-08T04:01:20;16.90;99.90
19880;DHT22;10102;50.828;4.416;2023-10-08T04:03:46;17.20;99.90
19880;DHT22;10102;50.828;4.416;2023-10-08T04:06:20;16.70;99.90
19880;DHT22;10102;50.828;4.416;2023-10-08T04:08:54;16.80;99.90
19880;DHT22;10102;50.828;4.416;2023-10-08T04:11:36;16.70;99.90
19880;DHT22;10102;50.828;4.416;2023-10-08T04:14:24;16.70;99.90
19880;DHT22;10102;50.828;4.416;2023-10-08T04:16:51;16.90;99.90
19880;DHT22;10102;50.828;4.416;2023-10-08T04:19:21;16.70;99.90
19880;DHT22;10102;50.828;4.416;2023-10-08T04:21:52;16.80;99.90
19880;DHT22;10102;50.828;4.416;2023-10-08T04:24:22;16.70;99.90
19880;DHT22;10102;50.828;4.416;2023-10-08T04:26:57;16.70;99.90
19880;DHT22;10102;50.828;4.416;2023-10-08T04:29:23;16.70;99.90
19880;DHT22;10102;50.828;4.416;2023-10-08T04:31:49;16.60;99.90
19880;DHT22;10102;50.828;4.416;2023-10-08T04:34:27;16.70;99.90
19880;DHT22;10102;50.828;4.416;2023-10-08T04:36:53;16.50;99.90
19880;DHT22;10102;50.828;4.416;2023-10-08T04:39:22;16.40;99.90
19880;DHT22;10102;50.828;4.416;2023-10-08T04:41:52;16.50;99.90
19880;DHT22;10102;50.828;4.416;2023-10-08T04:44:19;16.50;99.90
19880;DHT22;10102;50.828;4.416;2023-10-08T04:46:47;16.50;99.90
19880;DHT22;10102;50.828;4.416;2023-10-08T04:49:17;16.50;99.90
19880;DHT22;10102;50.828;4.416;2023-10-08T04:51:58;16.40;99.90
19880;DHT22;10102;50.828;4.416;2023-10-08T04:54:28;16.50;99.90
19880;DHT22;10102;50.828;4.416;2023-10-08T04:57:04;16.40;99.90
19880;DHT22;10102;50.828;4.416;2023-10-08T04:59:31;16.50;99.90
19880;DHT22;10102;50.828;4.416;2023-10-08T05:02:04;16.50;99.90
19880;DHT22;10102;50.828;4.416;2023-10-08T05:04:50;16.40;99.90
19880;DHT22;10102;50.828;4.416;2023-10-08T05:07:42;16.50;99.90
19880;DHT22;10102;50.828;4.416;2023-10-08T05:10:12;16.40;99.90
19880;DHT22;10102;50.828;4.416;2023-10-08T05:12:50;16.50;99.90
19880;DHT22;10102;50.828;4.416;2023-10-08T05:15:27;16.60;99.90
19880;DHT22;10102;50.828;4.416;2023-10-08T05:18:02;16.50;99.90
19880;DHT22;10102;50.828;4.416;2023-10-08T05:20:37;16.40;99.90
19880;DHT22;10102;50.828;4.416;2023-10-08T05:23:23;16.40;99.90
19880;DHT22;10102;50.828;4.416;2023-10-08T05:25:52;16.40;99.90
19880;DHT22;10102;50.828;4.416;2023-10-08T05:28:41;16.40;99.90
19880;DHT22;10102;50.828;4.416;2023-10-08T05:31:25;16.40;99.90
19880;DHT22;10102;50.828;4.416;2023-10-08T05:34:09;16.40;99.90
19880;DHT22;10102;50.828;4.416;2023-10-08T05:36:49;16.40;99.90
19880;DHT22;10102;50.828;4.416;2023-10-08T05:39:27;16.40;99.90
19880;DHT22;10102;50.828;4.416;2023-10-08T05:42:06;16.40;99.90
19880;DHT22;10102;50.828;4.416;2023-10-08T05:44:57;16.40;99.90
19880;DHT22;10102;50.828;4.416;2023-10-08T05:47:40;16.40;99.90
19880;DHT22;10102;50.828;4.416;2023-10-08T05:50:16;16.40;99.90
19880;DHT22;10102;50.828;4.416;2023-10-08T05:52:43;16.40;99.90
19880;DHT22;10102;50.828;4.416;2023-10-08T05:55:30;16.40;99.90
19880;DHT22;10102;50.828;4.416;2023-10-08T05:58:05;16.40;99.90
19880;DHT22;10102;50.828;4.416;2023-10-08T06:00:44;16.50;99.90
19880;DHT22;10102;50.828;4.416;2023-10-08T06:03:17;16.70;99.90
19880;DHT22;10102;50.828;4.416;2023-10-08T06:06:02;16.40;99.90
19880;DHT22;10102;50.828;4.416;2023-10-08T06:08:38;16.50;99.90
19880;DHT22;10102;50.828;4.416;2023-10-08T06:11:24;16.30;99.90
19880;DHT22;10102;50.828;4.416;2023-10-08T06:14:03;16.20;99.90
19880;DHT22;10102;50.828;4.416;2023-10-08T06:16:45;16.40;99.90
19880;DHT22;10102;50.828;4.416;2023-10-08T06:19:13;16.30;99.90
19880;DHT22;10102;50.828;4.416;2023-10-08T06:21:40;16.40;99.90
19880;DHT22;10102;50.828;4.416;2023-10-08T06:24:08;16.50;99.90
19880;DHT22;10102;50.828;4.416;2023-10-08T06:26:42;16.50;99.90
19880;DHT22;10102;50.828;4.416;2023-10-08T06:29:11;16.40;99.90
19880;DHT22;10102;50.828;4.416;2023-10-08T06:32:01;16.50;99.90
19880;DHT22;10102;50.828;4.416;2023-10-08T06:34:30;16.50;99.90
19880;DHT22;10102;50.828;4.416;2023-10-08T06:36:58;16.50;99.90
19880;DHT22;10102;50.828;4.416;2023-10-08T06:39:25;16.60;99.90
19880;DHT22;10102;50.828;4.416;2023-10-08T06:41:54;17.00;99.90
19880;DHT22;10102;50.828;4.416;2023-10-08T06:44:23;16.80;99.90
19880;DHT22;10102;50.828;4.416;2023-10-08T06:46:49;16.90;99.90
19880;DHT22;10102;50.828;4.416;2023-10-08T06:49:18;17.10;99.90
19880;DHT22;10102;50.828;4.416;2023-10-08T06:51:44;17.20;99.90
19880;DHT22;10102;50.828;4.416;2023-10-08T06:54:10;17.20;99.90
19880;DHT22;10102;50.828;4.416;2023-10-08T06:56:40;17.10;99.90
19880;DHT22;10102;50.828;4.416;2023-10-08T06:59:13;17.30;99.90
19880;DHT22;10102;50.828;4.416;2023-10-08T07:01:38;17.20;99.90
19880;DHT22;10102;50.828;4.416;2023-10-08T07:04:08;17.20;99.90
19880;DHT22;10102;50.828;4.416;2023-10-08T07:06:41;17.20;99.90
19880;DHT22;10102;50.828;4.416;2023-10-08T07:09:10;17.20;99.90
19880;DHT22;10102;50.828;4.416;2023-10-08T07:11:52;17.20;99.90
19880;DHT22;10102;50.828;4.416;2023-10-08T07:14:29;17.10;99.90
19880;DHT22;10102;50.828;4.416;2023-10-08T07:16:57;17.30;99.90
19880;DHT22;10102;50.828;4.416;2023-10-08T07:19:27;17.60;99.90
19880;DHT22;10102;50.828;4.416;2023-10-08T07:22:03;17.10;99.90
19880;DHT22;10102;50.828;4.416;2023-10-08T07:24:34;17.40;99.90
19880;DHT22;10102;50.828;4.416;2023-10-08T07:27:02;17.60;99.90
19880;DHT22;10102;50.828;4.416;2023-10-08T07:29:35;17.50;99.90
19880;DHT22;10102;50.828;4.416;2023-10-08T07:32:01;17.60;99.90
19880;DHT22;10102;50.828;4.416;2023-10-08T07:34:36;17.70;99.90
19880;DHT22;10102;50.828;4.416;2023-10-08T07:37:02;17.60;99.90
19880;DHT22;10102;50.828;4.416;2023-10-08T07:39:27;17.80;99.90
19880;DHT22;10102;50.828;4.416;2023-10-08T07:41:54;17.90;99.90
19880;DHT22;10102;50.828;4.416;2023-10-08T07:44:21;18.10;99.90
19880;DHT22;10102;50.828;4.416;2023-10-08T07:46:51;18.20;99.90
19880;DHT22;10102;50.828;4.416;2023-10-08T07:49:20;18.00;99.90
19880;DHT22;10102;50.828;4.416;2023-10-08T07:51:49;17.70;99.90
19880;DHT22;10102;50.828;4.416;2023-10-08T07:54:23;18.00;99.90
19880;DHT22;10102;50.828;4.416;2023-10-08T07:56:57;18.00;99.90
19880;DHT22;10102;50.828;4.416;2023-10-08T07:59:40;17.90;99.90
19880;DHT22;10102;50.828;4.416;2023-10-08T08:02:13;18.10;99.90
19880;DHT22;10102;50.828;4.416;2023-10-08T08:04:40;18.20;99.90
19880;DHT22;10102;50.828;4.416;2023-10-08T08:07:09;18.20;99.90
19880;DHT22;10102;50.828;4.416;2023-10-08T08:09:50;18.30;99.90
19880;DHT22;10102;50.828;4.416;2023-10-08T08:12:20;18.60;99.90
19880;DHT22;10102;50.828;4.416;2023-10-08T08:14:47;18.40;99.90
19880;DHT22;10102;50.828;4.416;2023-10-08T08:17:14;18.60;99.90
19880;DHT22;10102;50.828;4.416;2023-10-08T08:19:41;18.70;99.90
19880;DHT22;10102;50.828;4.416;2023-10-08T08:22:07;18.70;99.90
19880;DHT22;10102;50.828;4.416;2023-10-08T08:24:33;18.70;99.90
19880;DHT22;10102;50.828;4.416;2023-10-08T08:27:01;18.50;99.90
19880;DHT22;10102;50.828;4.416;2023-10-08T08:29:34;18.70;99.90
19880;DHT22;10102;50.828;4.416;2023-10-08T08:32:10;18.70;99.90
19880;DHT22;10102;50.828;4.416;2023-10-08T08:34:42;18.60;99.90
19880;DHT22;10102;50.828;4.416;2023-10-08T08:37:12;18.80;99.90
19880;DHT22;10102;50.828;4.416;2023-10-08T08:39:39;18.80;99.90
19880;DHT22;10102;50.828;4.416;2023-10-08T08:42:04;18.80;99.90
19880;DHT22;10102;50.828;4.416;2023-10-08T08:44:36;18.90;99.90
19880;DHT22;10102;50.828;4.416;2023-10-08T08:47:15;19.10;99.90
19880;DHT22;10102;50.828;4.416;2023-10-08T08:49:45;19.30;99.90
19880;DHT22;10102;50.828;4.416;2023-10-08T08:52:11;19.30;99.90
19880;DHT22;10102;50.828;4.416;2023-10-08T08:54:39;19.30;99.90
19880;DHT22;10102;50.828;4.416;2023-10-08T08:57:05;19.70;99.90
19880;DHT22;10102;50.828;4.416;2023-10-08T09:00:00;19.60;99.90
19880;DHT22;10102;50.828;4.416;2023-10-08T09:02:26;19.90;99.90
19880;DHT22;10102;50.828;4.416;2023-10-08T09:04:55;20.20;99.90
19880;DHT22;10102;50.828;4.416;2023-10-08T09:07:21;20.20;99.90
19880;DHT22;10102;50.828;4.416;2023-10-08T09:09:49;20.40;99.90
19880;DHT22;10102;50.828;4.416;2023-10-08T09:12:16;20.20;99.90
19880;DHT22;10102;50.828;4.416;2023-10-08T09:14:43;20.40;99.90
19880;DHT22;10102;50.828;4.416;2023-10-08T09:17:11;20.50;99.90
19880;DHT22;10102;50.828;4.416;2023-10-08T09:19:40;20.60;99.90
19880;DHT22;10102;50.828;4.416;2023-10-08T09:22:08;20.30;99.90
19880;DHT22;10102;50.828;4.416;2023-10-08T09:24:36;20.30;99.90
19880;DHT22;10102;50.828;4.416;2023-10-08T09:27:03;20.50;99.90
19880;DHT22;10102;50.828;4.416;2023-10-08T09:29:29;20.40;99.90
19880;DHT22;10102;50.828;4.416;2023-10-08T09:31:59;20.80;99.90
19880;DHT22;10102;50.828;4.416;2023-10-08T09:34:30;21.00;99.90
19880;DHT22;10102;50.828;4.416;2023-10-08T09:36:56;21.00;99.90
19880;DHT22;10102;50.828;4.416;2023-10-08T09:39:23;21.50;99.90
19880;DHT22;10102;50.828;4.416;2023-10-08T09:41:56;21.40;99.90
19880;DHT22;10102;50.828;4.416;2023-10-08T09:44:24;21.30;99.90
19880;DHT22;10102;50.828;4.416;2023-10-08T09:47:09;21.60;99.90
19880;DHT22;10102;50.828;4.416;2023-10-08T09:49:48;21.30;99.90
19880;DHT22;10102;50.828;4.416;2023-10-08T09:52:16;21.80;99.90
19880;DHT22;10102;50.828;4.416;2023-10-08T09:54:56;22.40;99.90
19880;DHT22;10102;50.828;4.416;2023-10-08T09:57:24;22.60;99.90
19880;DHT22;10102;50.828;4.416;2023-10-08T09:59:52;22.50;99.90
19880;DHT22;10102;50.828;4.416;2023-10-08T10:02:19;22.70;99.90
19880;DHT22;10102;50.828;4.416;2023-10-08T10:04:51;22.50;99.90
19880;DHT22;10102;50.828;4.416;2023-10-08T10:07:19;23.00;99.90
19880;DHT22;10102;50.828;4.416;2023-10-08T10:09:55;23.80;99.90
19880;DHT22;10102;50.828;4.416;2023-10-08T10:12:27;24.10;99.90
19880;DHT22;10102;50.828;4.416;2023-10-08T10:14:56;24.50;99.90
19880;DHT22;10102;50.828;4.416;2023-10-08T10:17:24;24.40;99.90
19880;DHT22;10102;50.828;4.416;2023-10-08T10:19:57;24.50;99.90
19880;DHT22;10102;50.828;4.416;2023-10-08T10:22:33;24.70;99.90
19880;DHT22;10102;50.828;4.416;2023-10-08T10:25:03;24.70;99.90
19880;DHT22;10102;50.828;4.416;2023-10-08T10:27:41;26.90;99.90
19880;DHT22;10102;50.828;4.416;2023-10-08T10:30:08;27.10;99.90
19880;DHT22;10102;50.828;4.416;2023-10-08T10:32:35;30.10;99.90
19880;DHT22;10102;50.828;4.416;2023-10-08T10:35:01;30.20;99.90
19880;DHT22;10102;50.828;4.416;2023-10-08T10:37:29;29.40;99.90
19880;DHT22;10102;50.828;4.416;2023-10-08T10:40:07;28.90;99.90
19880;DHT22;10102;50.828;4.416;2023-10-08T10:42:36;29.30;99.90
19880;DHT22;10102;50.828;4.416;2023-10-08T10:45:13;30.80;99.90
19880;DHT22;10102;50.828;4.416;2023-10-08T10:47:59;30.80;99.90
19880;DHT22;10102;50.828;4.416;2023-10-08T10:50:39;30.50;99.90
19880;DHT22;10102;50.828;4.416;2023-10-08T10:53:17;30.60;99.90
19880;DHT22;10102;50.828;4.416;2023-10-08T10:55:44;30.60;99.90
19880;DHT22;10102;50.828;4.416;2023-10-08T10:58:24;30.50;99.90
19880;DHT22;10102;50.828;4.416;2023-10-08T11:00:50;31.10;99.90
19880;DHT22;10102;50.828;4.416;2023-10-08T11:03:23;31.30;99.90
19880;DHT22;10102;50.828;4.416;2023-10-08T11:05:57;30.90;99.90
19880;DHT22;10102;50.828;4.416;2023-10-08T11:08:31;31.30;99.90
19880;DHT22;10102;50.828;4.416;2023-10-08T11:11:01;31.30;99.90
19880;DHT22;10102;50.828;4.416;2023-10-08T11:13:33;32.60;99.90
19880;DHT22;10102;50.828;4.416;2023-10-08T11:16:06;34.30;99.90
19880;DHT22;10102;50.828;4.416;2023-10-08T11:18:34;34.60;99.90
19880;DHT22;10102;50.828;4.416;2023-10-08T11:21:10;35.90;99.90
19880;DHT22;10102;50.828;4.416;2023-10-08T11:23:56;36.20;99.40
19880;DHT22;10102;50.828;4.416;2023-10-08T11:26:25;36.40;99.10
19880;DHT22;10102;50.828;4.416;2023-10-08T11:28:58;36.60;97.50
19880;DHT22;10102;50.828;4.416;2023-10-08T11:31:27;37.70;96.60
19880;DHT22;10102;50.828;4.416;2023-10-08T11:33:59;37.70;94.50
19880;DHT22;10102;50.828;4.416;2023-10-08T11:36:28;37.20;95.20
19880;DHT22;10102;50.828;4.416;2023-10-08T11:38:55;37.20;94.00
19880;DHT22;10102;50.828;4.416;2023-10-08T11:41:28;37.30;94.00
19880;DHT22;10102;50.828;4.416;2023-10-08T11:43:56;36.90;94.10
19880;DHT22;10102;50.828;4.416;2023-10-08T11:46:30;37.90;93.50
19880;DHT22;10102;50.828;4.416;2023-10-08T11:49:06;38.40;92.10
19880;DHT22;10102;50.828;4.416;2023-10-08T11:51:36;38.60;91.30
19880;DHT22;10102;50.828;4.416;2023-10-08T11:54:02;38.80;90.40
19880;DHT22;10102;50.828;4.416;2023-10-08T11:56:31;39.80;89.60
19880;DHT22;10102;50.828;4.416;2023-10-08T11:59:02;39.40;86.60
19880;DHT22;10102;50.828;4.416;2023-10-08T12:01:31;39.40;86.40
19880;DHT22;10102;50.828;4.416;2023-10-08T12:04:01;39.70;85.30
19880;DHT22;10102;50.828;4.416;2023-10-08T12:06:27;39.70;83.20
19880;DHT22;10102;50.828;4.416;2023-10-08T12:08:58;39.40;84.20
19880;DHT22;10102;50.828;4.416;2023-10-08T12:11:25;39.40;83.20
19880;DHT22;10102;50.828;4.416;2023-10-08T12:13:57;39.70;82.50
19880;DHT22;10102;50.828;4.416;2023-10-08T12:16:25;40.60;81.10
19880;DHT22;10102;50.828;4.416;2023-10-08T12:18:56;39.80;81.20
19880;DHT22;10102;50.828;4.416;2023-10-08T12:21:33;39.80;80.00
19880;DHT22;10102;50.828;4.416;2023-10-08T12:24:00;39.90;81.00
19880;DHT22;10102;50.828;4.416;2023-10-08T12:26:30;38.80;80.70
19880;DHT22;10102;50.828;4.416;2023-10-08T12:28:56;39.20;79.40
19880;DHT22;10102;50.828;4.416;2023-10-08T12:31:23;39.80;79.20
19880;DHT22;10102;50.828;4.416;2023-10-08T12:33:50;40.30;78.60
19880;DHT22;10102;50.828;4.416;2023-10-08T12:36:22;40.80;78.30
19880;DHT22;10102;50.828;4.416;2023-10-08T12:38:49;40.40;76.60
19880;DHT22;10102;50.828;4.416;2023-10-08T12:41:15;40.90;76.20
19880;DHT22;10102;50.828;4.416;2023-10-08T12:43:45;40.90;73.60
19880;DHT22;10102;50.828;4.416;2023-10-08T12:46:14;40.20;74.50
19880;DHT22;10102;50.828;4.416;2023-10-08T12:48:56;39.50;74.70
19880;DHT22;10102;50.828;4.416;2023-10-08T12:51:25;36.90;79.30
19880;DHT22;10102;50.828;4.416;2023-10-08T12:53:53;36.60;79.40
19880;DHT22;10102;50.828;4.416;2023-10-08T12:56:28;35.90;81.50
19880;DHT22;10102;50.828;4.416;2023-10-08T12:59:00;34.70;83.70
19880;DHT22;10102;50.828;4.416;2023-10-08T13:01:29;32.90;88.30
19880;DHT22;10102;50.828;4.416;2023-10-08T13:03:55;32.20;90.70
19880;DHT22;10102;50.828;4.416;2023-10-08T13:06:33;32.30;93.50
19880;DHT22;10102;50.828;4.416;2023-10-08T13:09:03;30.00;94.00
19880;DHT22;10102;50.828;4.416;2023-10-08T13:11:34;30.00;94.00
19880;DHT22;10102;50.828;4.416;2023-10-08T13:14:00;29.60;94.80
19880;DHT22;10102;50.828;4.416;2023-10-08T13:16:27;29.00;99.90
19880;DHT22;10102;50.828;4.416;2023-10-08T13:19:03;28.90;94.60
19880;DHT22;10102;50.828;4.416;2023-10-08T13:21:30;28.40;99.90
19880;DHT22;10102;50.828;4.416;2023-10-08T13:23:58;28.40;96.30
19880;DHT22;10102;50.828;4.416;2023-10-08T13:26:26;27.80;99.90
19880;DHT22;10102;50.828;4.416;2023-10-08T13:28:59;27.90;97.80
19880;DHT22;10102;50.828;4.416;2023-10-08T13:31:26;27.80;98.30
19880;DHT22;10102;50.828;4.416;2023-10-08T13:33:52;27.20;99.90
19880;DHT22;10102;50.828;4.416;2023-10-08T13:36:22;26.90;99.90
19880;DHT22;10102;50.828;4.416;2023-10-08T13:38:49;27.00;97.80
19880;DHT22;10102;50.828;4.416;2023-10-08T13:41:16;27.00;98.30
19880;DHT22;10102;50.828;4.416;2023-10-08T13:43:45;26.70;99.90
19880;DHT22;10102;50.828;4.416;2023-10-08T13:46:13;26.60;99.90
19880;DHT22;10102;50.828;4.416;2023-10-08T13:48:41;26.50;99.90
19880;DHT22;10102;50.828;4.416;2023-10-08T13:51:08;26.60;99.90
19880;DHT22;10102;50.828;4.416;2023-10-08T13:53:42;26.10;99.90
19880;DHT22;10102;50.828;4.416;2023-10-08T13:56:11;26.10;99.90
19880;DHT22;10102;50.828;4.416;2023-10-08T13:58:37;26.00;99.90
19880;DHT22;10102;50.828;4.416;2023-10-08T14:01:06;26.20;99.90
19880;DHT22;10102;50.828;4.416;2023-10-08T14:03:48;26.30;99.90
19880;DHT22;10102;50.828;4.416;2023-10-08T14:06:15;26.20;99.90
19880;DHT22;10102;50.828;4.416;2023-10-08T14:08:42;25.80;99.90
19880;DHT22;10102;50.828;4.416;2023-10-08T14:11:10;25.90;99.90
19880;DHT22;10102;50.828;4.416;2023-10-08T14:13:38;25.60;99.90
19880;DHT22;10102;50.828;4.416;2023-10-08T14:16:08;25.50;99.90
19880;DHT22;10102;50.828;4.416;2023-10-08T14:18:36;25.30;99.90
19880;DHT22;10102;50.828;4.416;2023-10-08T14:21:09;25.90;99.90
19880;DHT22;10102;50.828;4.416;2023-10-08T14:23:38;25.70;99.90
19880;DHT22;10102;50.828;4.416;2023-10-08T14:26:10;26.00;99.90
19880;DHT22;10102;50.828;4.416;2023-10-08T14:28:37;25.80;99.90
19880;DHT22;10102;50.828;4.416;2023-10-08T14:31:24;25.90;99.90
19880;DHT22;10102;50.828;4.416;2023-10-08T14:33:52;26.10;99.90
19880;DHT22;10102;50.828;4.416;2023-10-08T14:36:36;26.20;99.90
19880;DHT22;10102;50.828;4.416;2023-10-08T14:39:20;26.20;99.90
19880;DHT22;10102;50.828;4.416;2023-10-08T14:42:15;26.60;99.90
19880;DHT22;10102;50.828;4.416;2023-10-08T14:45:00;26.30;99.90
19880;DHT22;10102;50.828;4.416;2023-10-08T14:47:26;26.10;99.90
19880;DHT22;10102;50.828;4.416;2023-10-08T14:49:52;25.90;99.90
19880;DHT22;10102;50.828;4.416;2023-10-08T14:52:18;25.70;99.90
19880;DHT22;10102;50.828;4.416;2023-10-08T14:54:44;25.50;99.90
19880;DHT22;10102;50.828;4.416;2023-10-08T14:57:11;25.40;99.90
19880;DHT22;10102;50.828;4.416;2023-10-08T14:59:43;25.60;99.90
19880;DHT22;10102;50.828;4.416;2023-10-08T15:02:09;25.20;99.90
19880;DHT22;10102;50.828;4.416;2023-10-08T15:04:37;27.30;99.90
19880;DHT22;10102;50.828;4.416;2023-10-08T15:07:06;25.80;99.90
19880;DHT22;10102;50.828;4.416;2023-10-08T15:09:37;25.50;99.90
19880;DHT22;10102;50.828;4.416;2023-10-08T15:12:05;25.70;99.90
19880;DHT22;10102;50.828;4.416;2023-10-08T15:14:35;25.40;99.90
19880;DHT22;10102;50.828;4.416;2023-10-08T15:17:01;25.40;99.90
19880;DHT22;10102;50.828;4.416;2023-10-08T15:19:27;26.80;99.90
19880;DHT22;10102;50.828;4.416;2023-10-08T15:21:53;25.50;99.90
19880;DHT22;10102;50.828;4.416;2023-10-08T15:24:22;25.40;99.90
19880;DHT22;10102;50.828;4.416;2023-10-08T15:26:49;25.00;99.90
19880;DHT22;10102;50.828;4.416;2023-10-08T15:29:15;24.80;99.90
19880;DHT22;10102;50.828;4.416;2023-10-08T15:31:41;25.10;99.90
19880;DHT22;10102;50.828;4.416;2023-10-08T15:34:08;25.00;99.90
19880;DHT22;10102;50.828;4.416;2023-10-08T15:36:35;25.10;99.90
19880;DHT22;10102;50.828;4.416;2023-10-08T15:39:04;25.20;99.90
19880;DHT22;10102;50.828;4.416;2023-10-08T15:41:30;25.20;99.90
19880;DHT22;10102;50.828;4.416;2023-10-08T15:43:57;25.10;99.90
19880;DHT22;10102;50.828;4.416;2023-10-08T15:46:25;25.10;99.90
19880;DHT22;10102;50.828;4.416;2023-10-08T15:48:55;24.90;99.90
19880;DHT22;10102;50.828;4.416;2023-10-08T15:51:23;25.20;99.90
19880;DHT22;10102;50.828;4.416;2023-10-08T15:53:53;25.20;99.90
19880;DHT22;10102;50.828;4.416;2023-10-08T15:56:20;25.10;99.90
19880;DHT22;10102;50.828;4.416;2023-10-08T15:58:46;24.90;99.90
19880;DHT22;10102;50.828;4.416;2023-10-08T16:01:14;24.90;99.90
19880;DHT22;10102;50.828;4.416;2023-10-08T16:03:39;24.70;99.90